Flight Track Log - Related Links

Times and Time Zones

All times are in EDT time to prevent confusion due to time zone crossing. See the BJS536 flight status page for this flight to view local times or setup timezone preferences in your user account.

Time Position Orientation Groundspeed Altitude Reporting Facility
EDT Latitude Longitude Course Direction KTS MPH feet Rate Location/Type
Wed 06:09:01 PM 29.6356 -95.2675 22° Northeast 160 184 800  Level Houston Center
Wed 06:10:09 PM 29.6811 -95.2458 22° Northeast 247 284 3,800 2,423 Climbing Houston Center
Wed 06:10:45 PM 29.7311 -95.2558 350° North 280 322 5,000 1,935 Climbing Houston Center
Wed 06:12:13 PM 29.8206 -95.3186 329° Northwest 282 325 7,800 2,683 Climbing Houston Center
Wed 06:12:48 PM 29.8708 -95.3378 342° North 285 328 10,500 2,903 Climbing Houston Center
Wed 06:14:17 PM 29.9925 -95.3164 North 347 399 13,800 2,543 Climbing Houston Center
Wed 06:15:19 PM 30.1083 -95.2669 20° North 368 423 16,900 2,710 Climbing Houston Center
Wed 06:16:21 PM 30.2089 -95.2297 18° North 375 432 19,400 2,226 Climbing Houston Center
Wed 06:18:25 PM 30.4183 -95.1472 19° North 398 458 23,800 1,968 Climbing Houston Center
Wed 06:19:27 PM 30.5258 -95.1003 21° North 402 463 25,500 1,645 Climbing Houston Center
Wed 06:20:29 PM 30.6356 -95.0450 23° Northeast 429 494 27,200 1,742 Climbing Houston Center
Wed 06:21:31 PM 30.7647 -94.9661 28° Northeast 436 502 29,100 1,645 Climbing Houston Center
Wed 06:22:33 PM 30.8725 -94.8989 28° Northeast 439 505 30,600 1,355 Climbing Houston Center
Wed 06:23:35 PM 30.9833 -94.8294 28° Northeast 447 514 31,900 1,113 Climbing Houston Center
Wed 06:24:37 PM 31.0950 -94.7578 29° Northeast 456 525 32,900 968 Climbing Houston Center
Wed 06:25:39 PM 31.2189 -94.6789 29° Northeast 526 605 33,900 1,065 Climbing Houston Center
Wed 06:26:41 PM 31.3503 -94.5875 31° Northeast 498 573 35,100 1,355 Climbing Houston Center
Wed 06:27:43 PM 31.4656 -94.5094 30° Northeast 487 560 36,700 1,452 Climbing Houston Center
Wed 06:28:45 PM 31.5792 -94.4303 31° Northeast 480 552 38,100 1,258 Climbing Houston Center
Wed 06:29:47 PM 31.6928 -94.3511 31° Northeast 477 549 39,300 1,016 Climbing Houston Center
Wed 06:30:49 PM 31.8069 -94.2708 31° Northeast 478 550 40,200 1,065 Climbing Houston Center
Wed 06:31:51 PM 31.9247 -94.1900 30° Northeast 475 547 41,500 1,258 Climbing Houston Center
Wed 06:32:53 PM 32.0561 -94.0961 31° Northeast 463 533 42,800 1,065 Climbing Houston Center
Wed 06:33:55 PM 32.1575 -94.0269 30° Northeast 458 527 43,700 738 Climbing Fort Worth Center
Wed 06:34:55 PM 32.2575 -93.9472 34° Northeast 445 512 44,300 450 Climbing Fort Worth Center
Wed 06:35:55 PM 32.3619 -93.8742 31° Northeast 438 504 44,600 250 Climbing Fort Worth Center
Wed 06:36:55 PM 32.4683 -93.7986 31° Northeast 438 504 44,800 200 Climbing Fort Worth Center
Wed 06:37:55 PM 32.5767 -93.7206 31° Northeast 438 504 45,000 101 Climbing Fort Worth Center
Wed 06:38:54 PM 32.6972 -93.6342 31° Northeast 444 511 45,000  Level Fort Worth Center
Wed 06:39:55 PM 32.8078 -93.5553 31° Northeast 449 517 45,000  Level Fort Worth Center
Wed 06:40:55 PM 32.9181 -93.4764 31° Northeast 454 522 45,000  Level Fort Worth Center
Wed 06:41:55 PM 33.0281 -93.3947 32° Northeast 454 522 45,000  Level Fort Worth Center
Wed 06:42:55 PM 33.1403 -93.3153 31° Northeast 454 522 45,000  Level Fort Worth Center
Wed 06:43:55 PM 33.2483 -93.2381 31° Northeast 454 522 45,000  Level Fort Worth Center
Wed 06:46:25 PM 33.5092 -93.0528 31° Northeast 455 524 45,000  Level Memphis Center
Wed 06:47:25 PM 33.6175 -92.9714 32° Northeast 455 524 45,000  Level Memphis Center
Wed 06:48:25 PM 33.7275 -92.8922 31° Northeast 455 524 45,000  Level Memphis Center
Wed 06:49:25 PM 33.8336 -92.8128 32° Northeast 455 524 45,000  Level Memphis Center
Wed 06:50:25 PM 33.9414 -92.7333 31° Northeast 455 524 45,000  Level Memphis Center
Wed 06:51:25 PM 34.0514 -92.6561 30° Northeast 455 524 45,000  Level Memphis Center
Wed 06:52:25 PM 34.1636 -92.5636 34° Northeast 450 518 45,000  Level Memphis Center
Wed 06:53:25 PM 34.2694 -92.4858 31° Northeast 450 518 45,000  Level Memphis Center
Wed 06:54:25 PM 34.3772 -92.4056 32° Northeast 450 518 45,000  Level Memphis Center
Wed 06:55:25 PM 34.4828 -92.3275 31° Northeast 450 518 45,000  Level Memphis Center
Wed 06:56:25 PM 34.5883 -92.2467 32° Northeast 445 512 45,000  Level Memphis Center
Wed 06:57:25 PM 34.6919 -92.1606 34° Northeast 445 512 45,000  Level Memphis Center
Wed 06:58:25 PM 34.7769 -92.0511 47° Northeast 439 505 45,000  Level Memphis Center
Wed 06:59:25 PM 34.8639 -91.9439 45° Northeast 439 505 45,000  Level Memphis Center
Wed 07:00:25 PM 34.9486 -91.8342 47° Northeast 439 505 45,000  Level Memphis Center
Wed 07:01:25 PM 35.0356 -91.7189 47° Northeast 444 511 45,000  Level Memphis Center
Wed 07:02:25 PM 35.1222 -91.6111 45° Northeast 444 511 45,000  Level Memphis Center
Wed 07:03:25 PM 35.2067 -91.5006 47° Northeast 444 511 45,000  Level Memphis Center
Wed 07:04:25 PM 35.2911 -91.3897 47° Northeast 444 511 45,000  Level Memphis Center
Wed 07:05:25 PM 35.3775 -91.2789 46° Northeast 444 511 45,000  Level Memphis Center
Wed 07:06:25 PM 35.4553 -91.1856 44° Northeast 449 517 45,000  Level Memphis Center
Wed 07:07:24 PM 35.5414 -91.0689 48° Northeast 453 521 45,000  Level Memphis Center
Wed 07:08:25 PM 35.6297 -90.9547 46° Northeast 448 516 45,000  Level Memphis Center
Wed 07:09:25 PM 35.7178 -90.8325 48° Northeast 443 510 45,000  Level Memphis Center
Wed 07:10:25 PM 35.8017 -90.7128 49° Northeast 443 510 45,000  Level Memphis Center
Wed 07:11:25 PM 35.8914 -90.6031 45° Northeast 443 510 45,000  Level Memphis Center
Wed 07:12:25 PM 35.9772 -90.4853 48° Northeast 448 516 45,000  Level Memphis Center
Wed 07:13:24 PM 36.0628 -90.3725 47° Northeast 448 516 45,000  Level Memphis Center
Wed 07:14:25 PM 36.1481 -90.2567 48° Northeast 448 516 45,000  Level Memphis Center
Wed 07:15:25 PM 36.2356 -90.1408 47° Northeast 448 516 45,000  Level Memphis Center
Wed 07:16:25 PM 36.3208 -90.0247 48° Northeast 448 516 45,000  Level Memphis Center
Wed 07:17:25 PM 36.3975 -89.9211 47° Northeast 448 516 45,000  Level Memphis Center
Wed 07:18:25 PM 36.4847 -89.8072 46° Northeast 448 516 45,000  Level Memphis Center
Wed 07:19:25 PM 36.5717 -89.6903 47° Northeast 448 516 45,000  Level Memphis Center
Wed 07:20:27 PM 36.6583 -89.5733 47° Northeast 448 516 45,000  Level Memphis Center
Wed 07:21:25 PM 36.7431 -89.4533 49° Northeast 448 516 45,000  Level Memphis Center
Wed 07:22:25 PM 36.8297 -89.3356 47° Northeast 448 516 45,000  Level Memphis Center
Wed 07:23:25 PM 36.9119 -89.2178 49° Northeast 448 516 45,000  Level Memphis Center
Wed 07:24:25 PM 36.9983 -89.0972 48° Northeast 448 516 45,000  Level Memphis Center
Wed 07:25:25 PM 37.0806 -88.9789 49° Northeast 448 516 45,000  Level Memphis Center
Wed 07:26:25 PM 37.1644 -88.8653 47° Northeast 448 516 45,000  Level Memphis Center
Wed 07:28:51 PM 37.3736 -88.5628 49° Northeast 449 517 45,000  Level Indianapolis Center
Wed 07:29:53 PM 37.4575 -88.4422 49° Northeast 449 517 45,000  Level Indianapolis Center
Wed 07:30:54 PM 37.5375 -88.3272 49° Northeast 443 510 45,000  Level Indianapolis Center
Wed 07:31:56 PM 37.6231 -88.2044 49° Northeast 448 516 45,000  Level Indianapolis Center
Wed 07:32:58 PM 37.7050 -88.0858 49° Northeast 445 512 45,000  Level Indianapolis Center
Wed 07:33:59 PM 37.7833 -87.9733 49° Northeast 442 509 45,000  Level Indianapolis Center
Wed 07:35:01 PM 37.8647 -87.8544 49° Northeast 445 512 45,000  Level Indianapolis Center
Wed 07:36:02 PM 37.9461 -87.7364 49° Northeast 446 513 45,000  Level Indianapolis Center
Wed 07:37:04 PM 38.0403 -87.5892 51° Northeast 447 514 45,000  Level Indianapolis Center
Wed 07:38:05 PM 38.1183 -87.4669 51° Northeast 444 511 45,000  Level Indianapolis Center
Wed 07:39:07 PM 38.1958 -87.3442 51° Northeast 443 510 45,000  Level Indianapolis Center
Wed 07:40:09 PM 38.2744 -87.2189 51° Northeast 446 513 45,000  Level Indianapolis Center
Wed 07:41:10 PM 38.3519 -87.0939 52° Northeast 449 517 45,000  Level Indianapolis Center
Wed 07:42:12 PM 38.4289 -86.9739 51° Northeast 444 511 45,000  Level Indianapolis Center
Wed 07:43:13 PM 38.5139 -86.8358 52° Northeast 448 516 45,000  Level Indianapolis Center
Wed 07:44:15 PM 38.5911 -86.7117 51° Northeast 446 513 45,000  Level Indianapolis Center
Wed 07:45:16 PM 38.6683 -86.5864 52° Northeast 446 513 45,000  Level Indianapolis Center
Wed 07:46:18 PM 38.7461 -86.4622 51° Northeast 448 516 45,000  Level Indianapolis Center
Wed 07:47:20 PM 38.8239 -86.3361 52° Northeast 450 518 45,000  Level Indianapolis Center
Wed 07:48:21 PM 38.9047 -86.2031 52° Northeast 451 519 45,000  Level Indianapolis Center
Wed 07:49:23 PM 38.9822 -86.0761 52° Northeast 455 524 45,000  Level Indianapolis Center
Wed 07:50:24 PM 39.0603 -85.9475 52° Northeast 460 529 45,000  Level Indianapolis Center
Wed 07:51:26 PM 39.1375 -85.8197 52° Northeast 456 525 45,000  Level Indianapolis Center
Wed 07:52:28 PM 39.2303 -85.6644 52° Northeast 461 531 45,000  Level Indianapolis Center
Wed 07:53:29 PM 39.3097 -85.5344 52° Northeast 460 529 45,000  Level Indianapolis Center
Wed 07:54:31 PM 39.3906 -85.4094 50° Northeast 461 531 45,000  Level Indianapolis Center
Wed 07:55:32 PM 39.4839 -85.2994 42° Northeast 457 526 45,000  Level Indianapolis Center
Wed 07:56:34 PM 39.5503 -85.1581 59° Northeast 462 532 45,000  Level Indianapolis Center
Wed 07:57:36 PM 39.6203 -85.0181 57° Northeast 464 534 45,000  Level Indianapolis Center
Wed 07:58:37 PM 39.7000 -84.8556 57° Northeast 464 534 45,000  Level Indianapolis Center
Wed 08:00:00 PM 39.8523 -84.7683 24° Northeast  Level FlightAware Approximate
Wed 08:00:40 PM 39.8378 -84.5661 24° Northeast 468 539 45,000  Level Indianapolis Center
Wed 08:01:42 PM 39.9061 -84.4203 59° Northeast 468 539 45,000  Level Indianapolis Center
Wed 08:02:43 PM 39.9747 -84.2756 58° Northeast 467 537 45,000  Level Indianapolis Center
Wed 08:03:45 PM 40.0439 -84.1300 58° Northeast 467 537 45,000  Level Indianapolis Center
Wed 08:04:46 PM 40.1106 -83.9853 59° Northeast 460 529 45,000  Level Indianapolis Center
Wed 08:05:48 PM 40.1769 -83.8422 59° Northeast 455 524 45,000  Level Indianapolis Center
Wed 08:06:49 PM 40.2522 -83.6769 59° Northeast 450 518 45,000  Level Indianapolis Center
Wed 08:07:51 PM 40.3178 -83.5347 59° Northeast 450 518 45,000  Level Indianapolis Center
Wed 08:08:52 PM 40.3814 -83.3908 60° Northeast 451 519 45,000  Level Indianapolis Center
Wed 08:09:54 PM 40.4478 -83.2456 59° Northeast 456 525 45,000  Level Indianapolis Center
Wed 08:10:56 PM 40.5139 -83.0972 60° Northeast 462 532 45,000  Level Indianapolis Center
Wed 08:11:57 PM 40.5800 -82.9497 59° Northeast 465 535 45,000  Level Indianapolis Center
Wed 08:12:59 PM 40.6472 -82.8011 59° Northeast 468 539 45,000  Level Indianapolis Center
Wed 08:14:00 PM 40.7025 -82.6422 65° Northeast 474 545 45,000  Level Indianapolis Center
Wed 08:15:02 PM 40.7475 -82.4781 70° East 474 545 45,000  Level Indianapolis Center
Wed 08:16:03 PM 40.7917 -82.3117 71° East 476 548 45,000  Level Indianapolis Center
Wed 08:17:05 PM 40.8350 -82.1458 71° East 475 547 45,000  Level Indianapolis Center
Wed 08:17:52 PM 40.8692 -82.0081 72° East 471 542 45,000  Level Cleveland Center
Wed 08:18:52 PM 40.9106 -81.8442 71° East 476 548 45,000  Level Cleveland Center
Wed 08:19:52 PM 40.9542 -81.6747 71° East 476 548 45,000  Level Cleveland Center
Wed 08:20:52 PM 40.9972 -81.5047 71° East 476 548 45,000  Level Cleveland Center
Wed 08:21:52 PM 41.0422 -81.3375 70° East 476 548 45,000  Level Cleveland Center
Wed 08:22:52 PM 41.0850 -81.1672 72° East 481 554 45,000  Level Cleveland Center
Wed 08:23:52 PM 41.1275 -81.0186 69° East 481 554 45,000  Level Cleveland Center
Wed 08:24:52 PM 41.1739 -80.8147 73° East 476 548 45,000  Level Cleveland Center
Wed 08:25:52 PM 41.2158 -80.6467 72° East 481 554 45,000  Level Cleveland Center
Wed 08:26:52 PM 41.2575 -80.4808 71° East 475 547 45,000  Level Cleveland Center
Wed 08:27:52 PM 41.2969 -80.3289 71° East 480 552 45,000  Level Cleveland Center
Wed 08:28:52 PM 41.3358 -80.1600 73° East 480 552 45,000  Level Cleveland Center
Wed 08:29:52 PM 41.3808 -79.9772 72° East 480 552 45,000  Level Cleveland Center
Wed 08:30:52 PM 41.4217 -79.8078 72° East 472 543 45,000  Level Cleveland Center
Wed 08:31:52 PM 41.4622 -79.6411 72° East 472 543 45,000  Level Cleveland Center
Wed 08:32:52 PM 41.5022 -79.4686 73° East 472 543 45,000  Level Cleveland Center
Wed 08:33:52 PM 41.5422 -79.2958 73° East 482 555 45,000  Level Cleveland Center
Wed 08:34:52 PM 41.5817 -79.1258 73° East 477 549 45,000  Level Cleveland Center
Wed 08:35:52 PM 41.6211 -78.9528 73° East 477 549 45,000  Level Cleveland Center
Wed 08:36:52 PM 41.6603 -78.7767 73° East 477 549 45,000 -50 Level Cleveland Center
Wed 08:37:52 PM 41.7011 -78.6058 72° East 482 555 44,900 -600 Descending Cleveland Center
Wed 08:38:52 PM 41.7397 -78.4292 74° East 482 555 43,800 -1,050 Descending Cleveland Center
Wed 08:39:52 PM 41.7781 -78.2581 73° East 482 555 42,800 -1,187 Descending Cleveland Center
Wed 08:41:59 PM 41.8456 -77.8906 76° East 486 559 40,100 -1,316 Descending New York Center
Wed 08:42:59 PM 41.8247 -77.7100 99° East 484 557 38,700 -1,500 Descending New York Center
Wed 08:43:59 PM 41.7786 -77.5356 109° East 484 557 37,100 -1,800 Descending New York Center
Wed 08:44:59 PM 41.7319 -77.3642 110° East 484 557 35,100 -2,950 Descending New York Center
Wed 08:45:59 PM 41.6878 -77.1847 108° East 496 571 31,200 -3,850 Descending New York Center
Wed 08:46:59 PM 41.6425 -77.0192 110° East 496 571 27,400 -3,150 Descending New York Center
Wed 08:47:59 PM 41.5986 -76.8597 110° East 473 544 24,900 -1,700 Descending New York Center
Wed 08:48:59 PM 41.5564 -76.7064 110° East 450 518 24,000 -450 Descending New York Center
Wed 08:49:59 PM 41.5192 -76.5728 110° East 436 502 24,000  Level New York Center
Wed 08:50:59 PM 41.4786 -76.4197 109° East 436 502 24,000  Level New York Center
Wed 08:51:59 PM 41.4347 -76.2472 109° East 436 502 24,000  Level New York Center
Wed 08:52:59 PM 41.3875 -76.0939 112° Southeast 443 510 24,000 -1,000 Level New York Center
Wed 08:53:59 PM 41.3439 -75.9497 112° Southeast 433 498 22,000 -2,100 Descending New York Center
Wed 08:54:59 PM 41.3044 -75.8031 110° East 423 487 19,800 -1,950 Descending New York Center
Wed 08:55:59 PM 41.2717 -75.6900 111° Southeast 418 481 18,100 -2,100 Descending New York Center
Wed 08:56:59 PM 41.2256 -75.5461 113° Southeast 397 457 15,600 -2,300 Descending New York Center
Wed 08:57:59 PM 41.1825 -75.4189 114° Southeast 382 440 13,500 -2,250 Descending New York Center
Wed 08:58:59 PM 41.1339 -75.2778 115° Southeast 382 440 11,100 -1,850 Descending New York Center
Wed 08:59:59 PM 41.0964 -75.1653 114° Southeast 360 414 9,800 -1,600 Descending New York Center
Wed 09:00:59 PM 41.0628 -75.0639 114° Southeast 319 367 7,900 -1,850 Descending New York Center
Wed 09:01:59 PM 41.0369 -74.9717 110° East 300 345 6,100 -1,100 Descending New York Center
Wed 09:02:59 PM 41.0328 -74.8531 93° East 288 331 5,700 -850 Descending New York Center
Wed 09:03:59 PM 41.0300 -74.7483 92° East 288 331 4,400 -850 Descending New York Center
Wed 09:04:59 PM 41.0289 -74.6575 91° East 288 331 4,000 -700 Descending New York Center
Wed 09:05:59 PM 41.0283 -74.5475 90° East 276 318 3,000 -500 Descending New York Center
Wed 09:06:59 PM 41.0311 -74.4597 88° East 270 311 3,000 53 Level New York Center
Wed 09:07:53 PM 41.0333 -74.3500 88° East 278 320 3,100 53 Climbing New York TRACON
Wed 09:08:53 PM 41.0333 -74.2500 90° East 274 315 3,100 -250 Level New York TRACON
Wed 09:09:53 PM 41.0333 -74.1500 90° East 268 308 2,600 -500 Descending New York TRACON
Wed 09:10:53 PM 40.9667 -74.1000 150° Southeast 234 269 2,100 -600 Descending New York TRACON
Wed 09:11:53 PM 40.9167 -74.0667 153° Southeast 190 219 1,400 -700 Descending New York TRACON
Wed 09:12:53 PM 40.8833 -74.0500 159° South 132 152 700 -700 Descending New York TRACON
Wed 09:15:00 PM 40.8500 -74.0500 North  Level FlightAware Approximate
Wed 09:22:00 PM 40.8501 -74.0608 North  Level Estimated

Login

Don't have an account? Register now (free) for customized features, flight alerts, and more!